sensor_id;sensor_type;location;lat;lon;timestamp;pressure;altitude;pressure_sealevel;temperature;humidity
21236;BME280;10775;42.678;26.324;2023-04-15T00:01:11;97979.69;;;12.56;100.00
21236;BME280;10775;42.678;26.324;2023-04-15T00:03:37;97984.13;;;12.54;100.00
21236;BME280;10775;42.678;26.324;2023-04-15T00:06:03;97989.31;;;12.55;100.00
21236;BME280;10775;42.678;26.324;2023-04-15T00:08:29;97970.66;;;12.63;100.00
21236;BME280;10775;42.678;26.324;2023-04-15T00:10:55;97963.16;;;12.76;100.00
21236;BME280;10775;42.678;26.324;2023-04-15T00:13:20;97971.09;;;12.74;100.00
21236;BME280;10775;42.678;26.324;2023-04-15T00:15:46;97961.25;;;12.79;100.00
21236;BME280;10775;42.678;26.324;2023-04-15T00:18:12;97945.88;;;12.70;100.00
21236;BME280;10775;42.678;26.324;2023-04-15T00:20:37;97958.47;;;12.84;100.00
21236;BME280;10775;42.678;26.324;2023-04-15T00:23:03;97969.19;;;12.78;100.00
21236;BME280;10775;42.678;26.324;2023-04-15T00:25:29;97998.69;;;12.83;100.00
21236;BME280;10775;42.678;26.324;2023-04-15T00:27:55;98011.94;;;12.80;100.00
21236;BME280;10775;42.678;26.324;2023-04-15T00:30:20;98015.03;;;12.68;100.00
21236;BME280;10775;42.678;26.324;2023-04-15T00:32:46;97996.25;;;12.56;100.00
21236;BME280;10775;42.678;26.324;2023-04-15T00:35:11;97989.28;;;12.33;100.00
21236;BME280;10775;42.678;26.324;2023-04-15T00:37:37;97984.88;;;12.34;100.00
21236;BME280;10775;42.678;26.324;2023-04-15T00:40:02;97983.03;;;12.37;100.00
21236;BME280;10775;42.678;26.324;2023-04-15T00:42:30;97994.09;;;12.44;100.00
21236;BME280;10775;42.678;26.324;2023-04-15T00:44:56;97996.00;;;12.40;100.00
21236;BME280;10775;42.678;26.324;2023-04-15T00:47:21;97989.50;;;12.51;100.00
21236;BME280;10775;42.678;26.324;2023-04-15T00:49:47;97986.91;;;12.49;100.00
21236;BME280;10775;42.678;26.324;2023-04-15T00:52:12;97986.56;;;12.58;100.00
21236;BME280;10775;42.678;26.324;2023-04-15T00:54:38;97987.25;;;12.64;100.00
21236;BME280;10775;42.678;26.324;2023-04-15T00:57:05;97996.25;;;12.56;100.00
21236;BME280;10775;42.678;26.324;2023-04-15T00:59:32;98019.59;;;12.40;100.00
21236;BME280;10775;42.678;26.324;2023-04-15T01:01:58;98013.09;;;12.51;100.00
21236;BME280;10775;42.678;26.324;2023-04-15T01:04:24;98005.06;;;12.55;100.00
21236;BME280;10775;42.678;26.324;2023-04-15T01:06:49;98004.75;;;12.63;100.00
21236;BME280;10775;42.678;26.324;2023-04-15T01:09:15;98002.84;;;12.67;100.00
21236;BME280;10775;42.678;26.324;2023-04-15T01:11:41;97986.88;;;12.51;100.00
21236;BME280;10775;42.678;26.324;2023-04-15T01:14:08;97976.13;;;12.35;100.00
21236;BME280;10775;42.678;26.324;2023-04-15T01:16:35;97985.81;;;12.33;100.00
21236;BME280;10775;42.678;26.324;2023-04-15T01:19:05;97991.81;;;12.58;100.00
21236;BME280;10775;42.678;26.324;2023-04-15T01:21:35;98005.97;;;12.76;99.74
21236;BME280;10775;42.678;26.324;2023-04-15T01:24:07;98004.06;;;12.80;99.67
21236;BME280;10775;42.678;26.324;2023-04-15T01:26:34;97988.06;;;12.66;100.00
21236;BME280;10775;42.678;26.324;2023-04-15T01:29:00;97975.53;;;12.50;100.00
21236;BME280;10775;42.678;26.324;2023-04-15T01:31:25;97981.59;;;12.29;100.00
21236;BME280;10775;42.678;26.324;2023-04-15T01:33:51;97971.94;;;12.29;100.00
21236;BME280;10775;42.678;26.324;2023-04-15T01:36:17;97977.09;;;12.32;100.00
21236;BME280;10775;42.678;26.324;2023-04-15T01:38:42;97996.34;;;12.31;100.00
21236;BME280;10775;42.678;26.324;2023-04-15T01:41:08;98003.44;;;12.51;100.00
21236;BME280;10775;42.678;26.324;2023-04-15T01:43:34;97995.28;;;12.59;100.00
21236;BME280;10775;42.678;26.324;2023-04-15T01:46:03;97997.88;;;12.60;100.00
21236;BME280;10775;42.678;26.324;2023-04-15T01:48:28;98010.56;;;12.71;100.00
21236;BME280;10775;42.678;26.324;2023-04-15T01:50:54;98017.75;;;12.66;100.00
21236;BME280;10775;42.678;26.324;2023-04-15T01:53:23;98016.69;;;12.48;100.00
21236;BME280;10775;42.678;26.324;2023-04-15T01:55:48;98006.38;;;12.44;100.00
21236;BME280;10775;42.678;26.324;2023-04-15T01:58:14;97999.47;;;12.41;100.00
21236;BME280;10775;42.678;26.324;2023-04-15T02:00:39;97992.28;;;12.46;100.00
21236;BME280;10775;42.678;26.324;2023-04-15T02:03:05;97991.03;;;12.56;100.00
21236;BME280;10775;42.678;26.324;2023-04-15T02:05:31;97990.09;;;12.57;100.00
21236;BME280;10775;42.678;26.324;2023-04-15T02:07:57;97999.50;;;12.63;100.00
21236;BME280;10775;42.678;26.324;2023-04-15T02:10:22;97996.94;;;12.61;100.00
21236;BME280;10775;42.678;26.324;2023-04-15T02:12:47;98000.22;;;12.67;99.48
21236;BME280;10775;42.678;26.324;2023-04-15T02:15:13;98002.72;;;12.70;98.37
21236;BME280;10775;42.678;26.324;2023-04-15T02:17:38;98005.13;;;12.76;98.12
21236;BME280;10775;42.678;26.324;2023-04-15T02:20:04;98005.59;;;12.86;100.00
21236;BME280;10775;42.678;26.324;2023-04-15T02:22:30;97999.09;;;12.74;98.28
21236;BME280;10775;42.678;26.324;2023-04-15T02:24:56;98012.06;;;12.77;97.82
21236;BME280;10775;42.678;26.324;2023-04-15T02:27:21;98018.03;;;12.80;97.31
21236;BME280;10775;42.678;26.324;2023-04-15T02:29:47;98028.47;;;12.82;98.54
21236;BME280;10775;42.678;26.324;2023-04-15T02:32:15;98026.88;;;12.78;99.26
21236;BME280;10775;42.678;26.324;2023-04-15T02:34:41;98013.34;;;12.67;98.52
21236;BME280;10775;42.678;26.324;2023-04-15T02:37:10;98009.72;;;12.47;100.00
21236;BME280;10775;42.678;26.324;2023-04-15T02:39:36;98014.63;;;12.56;99.87
21236;BME280;10775;42.678;26.324;2023-04-15T02:42:02;98044.56;;;12.73;98.74
21236;BME280;10775;42.678;26.324;2023-04-15T02:44:29;98061.66;;;12.83;97.75
21236;BME280;10775;42.678;26.324;2023-04-15T02:46:55;98060.81;;;12.82;97.14
21236;BME280;10775;42.678;26.324;2023-04-15T02:49:20;98061.59;;;12.84;97.07
21236;BME280;10775;42.678;26.324;2023-04-15T02:51:47;98050.19;;;12.86;99.01
21236;BME280;10775;42.678;26.324;2023-04-15T02:54:15;98033.19;;;12.74;98.44
21236;BME280;10775;42.678;26.324;2023-04-15T02:56:41;98025.16;;;12.55;100.00
21236;BME280;10775;42.678;26.324;2023-04-15T02:59:06;98034.66;;;12.57;99.51
21236;BME280;10775;42.678;26.324;2023-04-15T03:01:32;98026.50;;;12.65;99.71
21236;BME280;10775;42.678;26.324;2023-04-15T03:03:57;98040.53;;;12.64;100.00
21236;BME280;10775;42.678;26.324;2023-04-15T03:06:23;98036.91;;;12.68;100.00
21236;BME280;10775;42.678;26.324;2023-04-15T03:08:49;98043.28;;;12.61;100.00
21236;BME280;10775;42.678;26.324;2023-04-15T03:11:14;98053.69;;;12.62;98.63
21236;BME280;10775;42.678;26.324;2023-04-15T03:13:41;98056.03;;;12.70;97.88
21236;BME280;10775;42.678;26.324;2023-04-15T03:16:07;98046.41;;;12.71;99.62
21236;BME280;10775;42.678;26.324;2023-04-15T03:18:33;98022.19;;;12.64;98.43
21236;BME280;10775;42.678;26.324;2023-04-15T03:20:58;97994.50;;;12.57;99.38
21236;BME280;10775;42.678;26.324;2023-04-15T03:23:24;97991.75;;;12.60;98.39
21236;BME280;10775;42.678;26.324;2023-04-15T03:25:50;97995.16;;;12.62;100.00
21236;BME280;10775;42.678;26.324;2023-04-15T03:28:15;98006.41;;;12.66;98.03
21236;BME280;10775;42.678;26.324;2023-04-15T03:30:41;98005.44;;;12.68;97.35
21236;BME280;10775;42.678;26.324;2023-04-15T03:33:06;98010.44;;;12.74;97.25
21236;BME280;10775;42.678;26.324;2023-04-15T03:35:33;98008.59;;;12.76;96.78
21236;BME280;10775;42.678;26.324;2023-04-15T03:37:58;98000.28;;;12.65;100.00
21236;BME280;10775;42.678;26.324;2023-04-15T03:40:24;98001.94;;;12.68;99.42
21236;BME280;10775;42.678;26.324;2023-04-15T03:42:49;97995.16;;;12.62;100.00
21236;BME280;10775;42.678;26.324;2023-04-15T03:45:15;98010.84;;;12.64;98.71
21236;BME280;10775;42.678;26.324;2023-04-15T03:47:40;98015.66;;;12.74;97.64
21236;BME280;10775;42.678;26.324;2023-04-15T03:50:06;98006.81;;;12.77;99.47
21236;BME280;10775;42.678;26.324;2023-04-15T03:52:32;97995.91;;;12.66;100.00
21236;BME280;10775;42.678;26.324;2023-04-15T03:54:58;98000.19;;;12.68;98.30
21236;BME280;10775;42.678;26.324;2023-04-15T03:57:23;98018.28;;;12.74;100.00
21236;BME280;10775;42.678;26.324;2023-04-15T03:59:49;98039.16;;;12.77;97.81
21236;BME280;10775;42.678;26.324;2023-04-15T04:02:14;98063.38;;;12.84;99.23
21236;BME280;10775;42.678;26.324;2023-04-15T04:04:39;98064.97;;;12.88;97.88
21236;BME280;10775;42.678;26.324;2023-04-15T04:07:05;98066.72;;;12.88;96.22
21236;BME280;10775;42.678;26.324;2023-04-15T04:09:31;98059.78;;;12.87;99.01
21236;BME280;10775;42.678;26.324;2023-04-15T04:11:56;98071.13;;;12.87;96.38
21236;BME280;10775;42.678;26.324;2023-04-15T04:14:22;98065.09;;;12.85;96.59
21236;BME280;10775;42.678;26.324;2023-04-15T04:16:53;98067.78;;;12.83;96.32
21236;BME280;10775;42.678;26.324;2023-04-15T04:19:18;98072.28;;;12.80;98.14
21236;BME280;10775;42.678;26.324;2023-04-15T04:21:45;98062.94;;;12.73;97.57
21236;BME280;10775;42.678;26.324;2023-04-15T04:24:11;98066.44;;;12.73;98.73
21236;BME280;10775;42.678;26.324;2023-04-15T04:26:36;98061.09;;;12.53;100.00
21236;BME280;10775;42.678;26.324;2023-04-15T04:29:02;98066.13;;;12.57;100.00
21236;BME280;10775;42.678;26.324;2023-04-15T04:31:27;98061.38;;;12.45;100.00
21236;BME280;10775;42.678;26.324;2023-04-15T04:33:53;98064.28;;;12.37;100.00
21236;BME280;10775;42.678;26.324;2023-04-15T04:36:18;98066.63;;;12.45;100.00
21236;BME280;10775;42.678;26.324;2023-04-15T04:38:43;98061.69;;;12.36;100.00
21236;BME280;10775;42.678;26.324;2023-04-15T04:41:09;98065.72;;;12.45;100.00
21236;BME280;10775;42.678;26.324;2023-04-15T04:43:34;98075.03;;;12.53;100.00
21236;BME280;10775;42.678;26.324;2023-04-15T04:46:00;98092.94;;;12.66;99.06
21236;BME280;10775;42.678;26.324;2023-04-15T04:48:25;98083.75;;;12.77;97.98
21236;BME280;10775;42.678;26.324;2023-04-15T04:50:51;98080.25;;;12.77;97.88
21236;BME280;10775;42.678;26.324;2023-04-15T04:53:17;98088.44;;;12.69;99.29
21236;BME280;10775;42.678;26.324;2023-04-15T04:55:43;98090.19;;;12.69;100.00
21236;BME280;10775;42.678;26.324;2023-04-15T04:58:08;98099.16;;;12.63;100.00
21236;BME280;10775;42.678;26.324;2023-04-15T05:00:33;98097.38;;;12.64;99.04
21236;BME280;10775;42.678;26.324;2023-04-15T05:02:59;98094.75;;;12.64;99.53
21236;BME280;10775;42.678;26.324;2023-04-15T05:05:25;98099.84;;;12.68;100.00
21236;BME280;10775;42.678;26.324;2023-04-15T05:07:51;98101.59;;;12.68;98.33
21236;BME280;10775;42.678;26.324;2023-04-15T05:10:16;98093.13;;;12.61;100.00
21236;BME280;10775;42.678;26.324;2023-04-15T05:12:42;98085.44;;;12.55;100.00
21236;BME280;10775;42.678;26.324;2023-04-15T05:15:08;98093.50;;;12.50;100.00
21236;BME280;10775;42.678;26.324;2023-04-15T05:17:34;98097.38;;;12.64;100.00
21236;BME280;10775;42.678;26.324;2023-04-15T05:20:00;98115.16;;;12.79;100.00
21236;BME280;10775;42.678;26.324;2023-04-15T05:22:26;98129.00;;;12.82;97.85
21236;BME280;10775;42.678;26.324;2023-04-15T05:24:52;98123.63;;;12.86;97.01
21236;BME280;10775;42.678;26.324;2023-04-15T05:27:17;98111.44;;;12.84;100.00
21236;BME280;10775;42.678;26.324;2023-04-15T05:29:43;98120.28;;;12.82;99.67
21236;BME280;10775;42.678;26.324;2023-04-15T05:32:09;98120.69;;;12.95;96.83
21236;BME280;10775;42.678;26.324;2023-04-15T05:34:35;98124.28;;;12.92;97.81
21236;BME280;10775;42.678;26.324;2023-04-15T05:37:00;98127.69;;;12.94;100.00
21236;BME280;10775;42.678;26.324;2023-04-15T05:39:26;98128.41;;;12.76;100.00
21236;BME280;10775;42.678;26.324;2023-04-15T05:41:52;98128.00;;;12.63;99.49
21236;BME280;10775;42.678;26.324;2023-04-15T05:44:17;98121.13;;;12.82;99.89
21236;BME280;10775;42.678;26.324;2023-04-15T05:46:42;98134.59;;;12.97;100.00
21236;BME280;10775;42.678;26.324;2023-04-15T05:49:08;98134.22;;;13.06;100.00
21236;BME280;10775;42.678;26.324;2023-04-15T05:51:33;98132.88;;;13.19;99.05
21236;BME280;10775;42.678;26.324;2023-04-15T05:54:00;98136.25;;;13.45;94.90
21236;BME280;10775;42.678;26.324;2023-04-15T05:56:25;98139.66;;;13.47;93.20
21236;BME280;10775;42.678;26.324;2023-04-15T05:58:51;98158.25;;;13.42;93.46
21236;BME280;10775;42.678;26.324;2023-04-15T06:01:17;98155.03;;;13.34;95.39
21236;BME280;10775;42.678;26.324;2023-04-15T06:03:42;98155.38;;;13.25;94.76
21236;BME280;10775;42.678;26.324;2023-04-15T06:06:09;98153.84;;;13.19;97.11
21236;BME280;10775;42.678;26.324;2023-04-15T06:08:34;98160.75;;;13.22;94.09
21236;BME280;10775;42.678;26.324;2023-04-15T06:11:00;98163.38;;;13.22;94.66
21236;BME280;10775;42.678;26.324;2023-04-15T06:13:25;98160.69;;;13.23;97.05
21236;BME280;10775;42.678;26.324;2023-04-15T06:15:51;98150.97;;;13.27;97.65
21236;BME280;10775;42.678;26.324;2023-04-15T06:18:17;98154.44;;;13.27;94.28
21236;BME280;10775;42.678;26.324;2023-04-15T06:20:44;98148.28;;;13.51;100.00
21236;BME280;10775;42.678;26.324;2023-04-15T06:23:09;98153.53;;;13.51;97.72
21236;BME280;10775;42.678;26.324;2023-04-15T06:25:34;98155.66;;;13.41;95.36
21236;BME280;10775;42.678;26.324;2023-04-15T06:28:00;98149.53;;;13.62;93.70
21236;BME280;10775;42.678;26.324;2023-04-15T06:30:25;98144.09;;;13.67;96.96
21236;BME280;10775;42.678;26.324;2023-04-15T06:32:51;98154.13;;;13.79;92.81
21236;BME280;10775;42.678;26.324;2023-04-15T06:35:16;98158.25;;;13.85;96.15
21236;BME280;10775;42.678;26.324;2023-04-15T06:37:42;98160.63;;;13.70;100.00
21236;BME280;10775;42.678;26.324;2023-04-15T06:40:08;98169.44;;;13.90;95.61
21236;BME280;10775;42.678;26.324;2023-04-15T06:42:34;98167.13;;;13.82;95.08
21236;BME280;10775;42.678;26.324;2023-04-15T06:45:01;98160.66;;;13.47;96.07
21236;BME280;10775;42.678;26.324;2023-04-15T06:47:26;98172.81;;;13.49;100.00
21236;BME280;10775;42.678;26.324;2023-04-15T06:49:52;98179.19;;;13.66;93.65
21236;BME280;10775;42.678;26.324;2023-04-15T06:52:17;98174.41;;;13.76;92.64
21236;BME280;10775;42.678;26.324;2023-04-15T06:54:43;98182.03;;;13.82;94.00
21236;BME280;10775;42.678;26.324;2023-04-15T06:57:09;98190.56;;;13.87;93.17
21236;BME280;10775;42.678;26.324;2023-04-15T06:59:34;98193.78;;;13.73;96.56
21236;BME280;10775;42.678;26.324;2023-04-15T07:02:00;98198.78;;;13.79;94.16
21236;BME280;10775;42.678;26.324;2023-04-15T07:04:26;98195.53;;;13.95;89.98
21236;BME280;10775;42.678;26.324;2023-04-15T07:06:52;98215.75;;;13.92;91.02
21236;BME280;10775;42.678;26.324;2023-04-15T07:09:18;98214.84;;;13.94;90.34
21236;BME280;10775;42.678;26.324;2023-04-15T07:11:44;98217.78;;;13.86;91.13
21236;BME280;10775;42.678;26.324;2023-04-15T07:14:09;98220.47;;;13.84;93.83
21236;BME280;10775;42.678;26.324;2023-04-15T07:16:35;98226.56;;;13.85;90.22
21236;BME280;10775;42.678;26.324;2023-04-15T07:19:01;98231.38;;;13.96;93.20
21236;BME280;10775;42.678;26.324;2023-04-15T07:21:26;98233.34;;;13.90;90.39
21236;BME280;10775;42.678;26.324;2023-04-15T07:23:52;98241.22;;;13.90;90.84
21236;BME280;10775;42.678;26.324;2023-04-15T07:26:17;98249.09;;;13.90;89.96
21236;BME280;10775;42.678;26.324;2023-04-15T07:28:43;98251.31;;;13.79;90.75
21236;BME280;10775;42.678;26.324;2023-04-15T07:31:10;98261.28;;;13.71;89.72
21236;BME280;10775;42.678;26.324;2023-04-15T07:33:36;98247.34;;;13.69;91.50
21236;BME280;10775;42.678;26.324;2023-04-15T07:36:01;98259.53;;;13.70;90.50
21236;BME280;10775;42.678;26.324;2023-04-15T07:38:27;98266.06;;;13.83;90.42
21236;BME280;10775;42.678;26.324;2023-04-15T07:40:52;98275.63;;;13.84;91.75
21236;BME280;10775;42.678;26.324;2023-04-15T07:43:18;98273.31;;;13.77;96.28
21236;BME280;10775;42.678;26.324;2023-04-15T07:45:46;98275.09;;;13.76;91.09
21236;BME280;10775;42.678;26.324;2023-04-15T07:48:12;98271.66;;;13.74;90.31
21236;BME280;10775;42.678;26.324;2023-04-15T07:50:37;98272.69;;;13.70;92.34
21236;BME280;10775;42.678;26.324;2023-04-15T07:53:03;98274.25;;;13.76;91.91
21236;BME280;10775;42.678;26.324;2023-04-15T07:55:28;98280.53;;;13.94;90.07
21236;BME280;10775;42.678;26.324;2023-04-15T07:57:54;98288.88;;;14.03;89.11
21236;BME280;10775;42.678;26.324;2023-04-15T08:00:20;98287.78;;;14.31;88.39
21236;BME280;10775;42.678;26.324;2023-04-15T08:02:46;98287.22;;;14.45;86.80
21236;BME280;10775;42.678;26.324;2023-04-15T08:05:12;98295.28;;;14.40;92.65
21236;BME280;10775;42.678;26.324;2023-04-15T08:07:38;98299.44;;;14.46;88.05
21236;BME280;10775;42.678;26.324;2023-04-15T08:10:04;98306.00;;;14.57;87.28
21236;BME280;10775;42.678;26.324;2023-04-15T08:12:30;98300.28;;;14.68;93.70
21236;BME280;10775;42.678;26.324;2023-04-15T08:14:56;98300.75;;;14.78;85.78
21236;BME280;10775;42.678;26.324;2023-04-15T08:17:22;98297.44;;;14.93;84.72
21236;BME280;10775;42.678;26.324;2023-04-15T08:19:47;98305.72;;;15.05;85.48
21236;BME280;10775;42.678;26.324;2023-04-15T08:22:13;98298.53;;;15.48;92.54
21236;BME280;10775;42.678;26.324;2023-04-15T08:24:39;98299.47;;;16.92;84.31
21236;BME280;10775;42.678;26.324;2023-04-15T08:27:04;98297.31;;;17.00;79.56
21236;BME280;10775;42.678;26.324;2023-04-15T08:29:33;98289.09;;;17.22;89.10
21236;BME280;10775;42.678;26.324;2023-04-15T08:31:59;98287.41;;;18.48;73.86
21236;BME280;10775;42.678;26.324;2023-04-15T08:34:26;98285.22;;;17.61;74.68
21236;BME280;10775;42.678;26.324;2023-04-15T08:36:51;98284.72;;;17.38;76.72
21236;BME280;10775;42.678;26.324;2023-04-15T08:39:17;98277.69;;;17.87;73.75
21236;BME280;10775;42.678;26.324;2023-04-15T08:41:50;98278.13;;;16.62;84.24
21236;BME280;10775;42.678;26.324;2023-04-15T08:44:16;98277.34;;;16.60;82.42
21236;BME280;10775;42.678;26.324;2023-04-15T08:46:42;98281.28;;;16.68;81.29
21236;BME280;10775;42.678;26.324;2023-04-15T08:49:12;98269.34;;;16.26;88.58
21236;BME280;10775;42.678;26.324;2023-04-15T08:51:41;98271.09;;;16.80;84.84
21236;BME280;10775;42.678;26.324;2023-04-15T08:54:07;98276.59;;;16.04;89.19
21236;BME280;10775;42.678;26.324;2023-04-15T08:56:33;98267.34;;;15.38;93.20
21236;BME280;10775;42.678;26.324;2023-04-15T08:58:59;98273.19;;;16.19;89.55
21236;BME280;10775;42.678;26.324;2023-04-15T09:01:25;98270.88;;;17.83;80.74
21236;BME280;10775;42.678;26.324;2023-04-15T09:03:51;98268.44;;;17.78;81.32
21236;BME280;10775;42.678;26.324;2023-04-15T09:06:20;98273.47;;;16.84;83.54
21236;BME280;10775;42.678;26.324;2023-04-15T09:08:46;98269.56;;;16.91;82.95
21236;BME280;10775;42.678;26.324;2023-04-15T09:11:12;98268.78;;;17.07;86.36
21236;BME280;10775;42.678;26.324;2023-04-15T09:13:38;98265.47;;;18.16;83.67
21236;BME280;10775;42.678;26.324;2023-04-15T09:16:06;98260.72;;;19.26;75.29
21236;BME280;10775;42.678;26.324;2023-04-15T09:18:34;98263.19;;;17.94;77.91
21236;BME280;10775;42.678;26.324;2023-04-15T09:21:08;98264.34;;;17.07;74.71
21236;BME280;10775;42.678;26.324;2023-04-15T09:23:36;98255.06;;;17.00;82.44
21236;BME280;10775;42.678;26.324;2023-04-15T09:26:03;98258.63;;;16.82;85.08
21236;BME280;10775;42.678;26.324;2023-04-15T09:28:29;98251.50;;;16.49;81.33
21236;BME280;10775;42.678;26.324;2023-04-15T09:30:58;98252.59;;;16.62;86.26
21236;BME280;10775;42.678;26.324;2023-04-15T09:33:25;98253.72;;;16.04;88.71
21236;BME280;10775;42.678;26.324;2023-04-15T09:36:18;98248.56;;;17.23;80.94
21236;BME280;10775;42.678;26.324;2023-04-15T09:38:54;98243.88;;;18.54;78.78
21236;BME280;10775;42.678;26.324;2023-04-15T09:41:20;98247.66;;;19.08;78.18
21236;BME280;10775;42.678;26.324;2023-04-15T09:43:46;98248.75;;;18.76;70.64
21236;BME280;10775;42.678;26.324;2023-04-15T09:46:11;98249.50;;;18.17;75.88
21236;BME280;10775;42.678;26.324;2023-04-15T09:48:37;98252.50;;;17.48;80.18
21236;BME280;10775;42.678;26.324;2023-04-15T09:51:02;98239.22;;;17.81;74.51
21236;BME280;10775;42.678;26.324;2023-04-15T09:53:28;98235.94;;;18.68;75.63
21236;BME280;10775;42.678;26.324;2023-04-15T09:55:58;98239.97;;;19.47;70.87
21236;BME280;10775;42.678;26.324;2023-04-15T09:58:29;98234.78;;;19.31;69.74
21236;BME280;10775;42.678;26.324;2023-04-15T10:00:56;98236.66;;;19.43;67.70
21236;BME280;10775;42.678;26.324;2023-04-15T10:03:30;98231.34;;;19.15;71.13
21236;BME280;10775;42.678;26.324;2023-04-15T10:05:58;98220.59;;;19.03;72.83
21236;BME280;10775;42.678;26.324;2023-04-15T10:08:29;98223.50;;;19.27;70.88
21236;BME280;10775;42.678;26.324;2023-04-15T10:10:55;98223.94;;;18.62;71.39
21236;BME280;10775;42.678;26.324;2023-04-15T10:13:25;98207.56;;;18.70;72.78
21236;BME280;10775;42.678;26.324;2023-04-15T10:16:15;98223.34;;;18.57;73.58
21236;BME280;10775;42.678;26.324;2023-04-15T10:18:46;98212.69;;;18.73;71.25
21236;BME280;10775;42.678;26.324;2023-04-15T10:21:12;98212.16;;;19.11;70.55
21236;BME280;10775;42.678;26.324;2023-04-15T10:23:41;98213.50;;;19.18;68.79
21236;BME280;10775;42.678;26.324;2023-04-15T10:26:07;98216.50;;;18.09;72.92
21236;BME280;10775;42.678;26.324;2023-04-15T10:28:34;98214.13;;;18.79;70.77
21236;BME280;10775;42.678;26.324;2023-04-15T10:31:00;98207.53;;;19.29;69.05
21236;BME280;10775;42.678;26.324;2023-04-15T10:33:26;98210.31;;;19.40;67.79
21236;BME280;10775;42.678;26.324;2023-04-15T10:35:54;98203.75;;;19.33;68.48
21236;BME280;10775;42.678;26.324;2023-04-15T10:38:34;98204.38;;;19.51;69.00
21236;BME280;10775;42.678;26.324;2023-04-15T10:41:20;98205.47;;;20.03;70.44
21236;BME280;10775;42.678;26.324;2023-04-15T10:44:04;98194.16;;;20.26;65.73
21236;BME280;10775;42.678;26.324;2023-04-15T10:46:43;98200.38;;;20.00;64.75
21236;BME280;10775;42.678;26.324;2023-04-15T10:49:16;98200.13;;;20.42;67.02
21236;BME280;10775;42.678;26.324;2023-04-15T10:51:57;98196.53;;;20.44;67.76
21236;BME280;10775;42.678;26.324;2023-04-15T10:59:38;98196.94;;;20.50;66.46
21236;BME280;10775;42.678;26.324;2023-04-15T11:02:56;98200.53;;;20.63;66.26
21236;BME280;10775;42.678;26.324;2023-04-15T11:08:11;98197.69;;;20.52;65.63
21236;BME280;10775;42.678;26.324;2023-04-15T11:13:14;98200.34;;;20.52;64.10
21236;BME280;10775;42.678;26.324;2023-04-15T11:15:42;98200.75;;;20.99;64.56
21236;BME280;10775;42.678;26.324;2023-04-15T11:20:38;98198.59;;;20.78;63.23
21236;BME280;10775;42.678;26.324;2023-04-15T11:23:04;98209.97;;;21.06;62.51
21236;BME280;10775;42.678;26.324;2023-04-15T11:25:32;98201.69;;;20.98;59.83
21236;BME280;10775;42.678;26.324;2023-04-15T11:27:59;98216.56;;;20.62;59.61
21236;BME280;10775;42.678;26.324;2023-04-15T11:30:27;98206.91;;;20.34;59.86
21236;BME280;10775;42.678;26.324;2023-04-15T11:32:56;98211.97;;;20.24;60.87
21236;BME280;10775;42.678;26.324;2023-04-15T11:35:22;98210.66;;;20.44;60.12
21236;BME280;10775;42.678;26.324;2023-04-15T11:37:48;98203.66;;;19.76;61.66
21236;BME280;10775;42.678;26.324;2023-04-15T11:40:15;98197.63;;;19.74;63.73
21236;BME280;10775;42.678;26.324;2023-04-15T11:42:45;98195.13;;;20.25;61.57
21236;BME280;10775;42.678;26.324;2023-04-15T11:45:13;98200.34;;;20.39;62.87
21236;BME280;10775;42.678;26.324;2023-04-15T11:47:40;98190.75;;;20.64;60.67
21236;BME280;10775;42.678;26.324;2023-04-15T11:50:22;98190.75;;;20.64;61.45
21236;BME280;10775;42.678;26.324;2023-04-15T11:52:55;98190.75;;;21.02;65.15
21236;BME280;10775;42.678;26.324;2023-04-15T11:55:25;98184.56;;;21.15;63.29
21236;BME280;10775;42.678;26.324;2023-04-15T11:58:06;98188.84;;;21.54;63.09
21236;BME280;10775;42.678;26.324;2023-04-15T12:00:32;98184.50;;;21.53;60.67
21236;BME280;10775;42.678;26.324;2023-04-15T12:03:17;98184.41;;;21.42;61.01
21236;BME280;10775;42.678;26.324;2023-04-15T12:06:08;98184.09;;;20.44;62.63
21236;BME280;10775;42.678;26.324;2023-04-15T12:08:51;98176.09;;;20.71;62.25
21236;BME280;10775;42.678;26.324;2023-04-15T12:14:25;98168.25;;;21.45;59.92
21236;BME280;10775;42.678;26.324;2023-04-15T12:16:58;98175.25;;;21.46;61.79
21236;BME280;10775;42.678;26.324;2023-04-15T12:19:35;98169.44;;;21.28;59.57
21236;BME280;10775;42.678;26.324;2023-04-15T12:24:30;98164.41;;;21.36;60.13
21236;BME280;10775;42.678;26.324;2023-04-15T12:26:56;98159.78;;;21.64;57.99
21236;BME280;10775;42.678;26.324;2023-04-15T12:29:27;98161.69;;;21.62;56.73
21236;BME280;10775;42.678;26.324;2023-04-15T12:31:57;98158.34;;;21.95;56.84
21236;BME280;10775;42.678;26.324;2023-04-15T12:34:27;98161.13;;;21.69;55.87
21236;BME280;10775;42.678;26.324;2023-04-15T12:36:53;98151.22;;;21.71;55.55
21236;BME280;10775;42.678;26.324;2023-04-15T12:39:21;98153.03;;;21.95;52.54
21236;BME280;10775;42.678;26.324;2023-04-15T12:41:48;98151.69;;;21.65;53.77
21236;BME280;10775;42.678;26.324;2023-04-15T12:44:13;98147.13;;;21.55;55.99
21236;BME280;10775;42.678;26.324;2023-04-15T12:46:39;98150.78;;;21.54;55.56
21236;BME280;10775;42.678;26.324;2023-04-15T12:49:04;98153.97;;;21.09;56.33
21236;BME280;10775;42.678;26.324;2023-04-15T12:51:29;98146.94;;;20.95;59.57
21236;BME280;10775;42.678;26.324;2023-04-15T12:53:56;98153.22;;;21.07;59.00
21236;BME280;10775;42.678;26.324;2023-04-15T12:56:22;98152.28;;;20.57;60.34
21236;BME280;10775;42.678;26.324;2023-04-15T12:58:48;98156.94;;;21.04;59.20
21236;BME280;10775;42.678;26.324;2023-04-15T13:01:13;98153.00;;;20.97;57.63
21236;BME280;10775;42.678;26.324;2023-04-15T13:03:39;98153.84;;;21.11;56.45
21236;BME280;10775;42.678;26.324;2023-04-15T13:06:04;98151.19;;;20.98;56.99